Main page
METAR-TAF:

METAR-TAF

Airports :

Zanjan, Iran

latitude: 36-41N, longitude: 048-29E, elevation: 1663 m

Current weather observation

The report was made 40 minutes ago, at 03:00 UTC
Wind 12 kt from the Southeast
Temperature 10°C
Humidity 93%
Pressure 1022 hPa
Visibility: 4000 m
Few clouds at a height of 2500 ft
Few clouds at a height of 3000 ft, Cumulonimbus.
Scattered clouds at a height of 3500 ft
Overcast at a height of 8000 ft
rain

METAR: OITZ 290300Z 14012KT 4000 RA FEW025 FEW030CB SCT035 OVC080 10/09 Q1022

Time: 08:10 (03:40 UTC)


TAF: missing

Weather observations and forecasts of more than 4000 airports (METAR and TAF reports).

The available stations are represented by yellow and red dots on the map.

Hover mouse over dot to see the name of the station.

Then click to see weather observations and forecasts.

To change the map : click on the green buttons with a black cross to zoom in, on the green button with a dash to zoom out, or on the green arrows for adjacent maps.


METAR-TAF: